sensor_id;sensor_type;location;lat;lon;timestamp;P1;durP1;ratioP1;P2;durP2;ratioP2
33844;SDS011;20145;43.118;25.694;2023-04-24T00:00:56;6.38;;;4.15;;
33844;SDS011;20145;43.118;25.694;2023-04-24T00:03:23;7.60;;;3.83;;
33844;SDS011;20145;43.118;25.694;2023-04-24T00:05:49;9.32;;;3.65;;
33844;SDS011;20145;43.118;25.694;2023-04-24T00:08:15;7.88;;;3.80;;
33844;SDS011;20145;43.118;25.694;2023-04-24T00:10:40;8.95;;;4.43;;
33844;SDS011;20145;43.118;25.694;2023-04-24T00:13:07;6.68;;;4.13;;
33844;SDS011;20145;43.118;25.694;2023-04-24T00:15:33;6.35;;;4.70;;
33844;SDS011;20145;43.118;25.694;2023-04-24T00:17:58;10.23;;;4.10;;
33844;SDS011;20145;43.118;25.694;2023-04-24T00:20:26;8.27;;;4.25;;
33844;SDS011;20145;43.118;25.694;2023-04-24T00:22:53;8.13;;;5.05;;
33844;SDS011;20145;43.118;25.694;2023-04-24T00:25:18;7.18;;;5.07;;
33844;SDS011;20145;43.118;25.694;2023-04-24T00:27:44;6.35;;;5.00;;
33844;SDS011;20145;43.118;25.694;2023-04-24T00:30:10;5.88;;;4.68;;
33844;SDS011;20145;43.118;25.694;2023-04-24T00:32:36;7.78;;;5.43;;
33844;SDS011;20145;43.118;25.694;2023-04-24T00:35:01;7.25;;;4.40;;
33844;SDS011;20145;43.118;25.694;2023-04-24T00:37:27;9.95;;;4.93;;
33844;SDS011;20145;43.118;25.694;2023-04-24T00:39:53;12.48;;;4.90;;
33844;SDS011;20145;43.118;25.694;2023-04-24T00:42:19;7.95;;;4.65;;
33844;SDS011;20145;43.118;25.694;2023-04-24T00:44:45;6.00;;;4.30;;
33844;SDS011;20145;43.118;25.694;2023-04-24T00:47:11;10.25;;;4.55;;
33844;SDS011;20145;43.118;25.694;2023-04-24T00:49:37;10.15;;;5.40;;
33844;SDS011;20145;43.118;25.694;2023-04-24T00:52:03;9.32;;;5.25;;
33844;SDS011;20145;43.118;25.694;2023-04-24T00:54:32;9.80;;;6.15;;
33844;SDS011;20145;43.118;25.694;2023-04-24T00:56:58;6.03;;;5.07;;
33844;SDS011;20145;43.118;25.694;2023-04-24T00:59:25;5.93;;;4.30;;
33844;SDS011;20145;43.118;25.694;2023-04-24T01:01:51;7.18;;;4.35;;
33844;SDS011;20145;43.118;25.694;2023-04-24T01:04:16;6.57;;;4.78;;
33844;SDS011;20145;43.118;25.694;2023-04-24T01:06:43;10.30;;;4.80;;
33844;SDS011;20145;43.118;25.694;2023-04-24T01:09:10;7.00;;;4.70;;
33844;SDS011;20145;43.118;25.694;2023-04-24T01:11:38;9.50;;;4.15;;
33844;SDS011;20145;43.118;25.694;2023-04-24T01:14:07;9.15;;;4.32;;
33844;SDS011;20145;43.118;25.694;2023-04-24T01:16:32;7.78;;;4.88;;
33844;SDS011;20145;43.118;25.694;2023-04-24T01:18:58;11.27;;;4.57;;
33844;SDS011;20145;43.118;25.694;2023-04-24T01:21:24;5.40;;;4.78;;
33844;SDS011;20145;43.118;25.694;2023-04-24T01:23:53;7.07;;;4.82;;
33844;SDS011;20145;43.118;25.694;2023-04-24T01:26:20;8.25;;;4.57;;
33844;SDS011;20145;43.118;25.694;2023-04-24T01:28:47;11.90;;;5.05;;
33844;SDS011;20145;43.118;25.694;2023-04-24T01:31:13;7.60;;;5.20;;
33844;SDS011;20145;43.118;25.694;2023-04-24T01:33:41;9.43;;;4.95;;
33844;SDS011;20145;43.118;25.694;2023-04-24T01:36:07;8.98;;;5.50;;
33844;SDS011;20145;43.118;25.694;2023-04-24T01:38:35;8.93;;;5.40;;
33844;SDS011;20145;43.118;25.694;2023-04-24T01:41:01;6.93;;;5.75;;
33844;SDS011;20145;43.118;25.694;2023-04-24T01:43:27;7.72;;;6.25;;
33844;SDS011;20145;43.118;25.694;2023-04-24T01:45:53;7.93;;;5.32;;
33844;SDS011;20145;43.118;25.694;2023-04-24T01:48:19;9.63;;;6.60;;
33844;SDS011;20145;43.118;25.694;2023-04-24T01:50:45;8.13;;;6.10;;
33844;SDS011;20145;43.118;25.694;2023-04-24T01:53:10;16.38;;;8.23;;
33844;SDS011;20145;43.118;25.694;2023-04-24T01:55:36;9.93;;;6.25;;
33844;SDS011;20145;43.118;25.694;2023-04-24T01:58:02;8.60;;;5.22;;
33844;SDS011;20145;43.118;25.694;2023-04-24T02:00:28;7.82;;;6.47;;
33844;SDS011;20145;43.118;25.694;2023-04-24T02:02:53;6.60;;;5.90;;
33844;SDS011;20145;43.118;25.694;2023-04-24T02:05:19;9.05;;;6.13;;
33844;SDS011;20145;43.118;25.694;2023-04-24T02:07:45;7.80;;;5.95;;
33844;SDS011;20145;43.118;25.694;2023-04-24T02:10:10;12.65;;;5.75;;
33844;SDS011;20145;43.118;25.694;2023-04-24T02:12:36;7.05;;;5.80;;
33844;SDS011;20145;43.118;25.694;2023-04-24T02:15:02;9.05;;;6.15;;
33844;SDS011;20145;43.118;25.694;2023-04-24T02:17:28;7.18;;;5.35;;
33844;SDS011;20145;43.118;25.694;2023-04-24T02:19:53;10.63;;;5.78;;
33844;SDS011;20145;43.118;25.694;2023-04-24T02:22:19;8.23;;;5.30;;
33844;SDS011;20145;43.118;25.694;2023-04-24T02:24:45;7.38;;;5.53;;
33844;SDS011;20145;43.118;25.694;2023-04-24T02:27:10;10.65;;;6.13;;
33844;SDS011;20145;43.118;25.694;2023-04-24T02:29:36;6.55;;;5.20;;
33844;SDS011;20145;43.118;25.694;2023-04-24T02:32:02;9.45;;;5.45;;
33844;SDS011;20145;43.118;25.694;2023-04-24T02:34:27;14.32;;;5.65;;
33844;SDS011;20145;43.118;25.694;2023-04-24T02:36:53;7.13;;;5.85;;
33844;SDS011;20145;43.118;25.694;2023-04-24T02:39:21;7.82;;;5.80;;
33844;SDS011;20145;43.118;25.694;2023-04-24T02:41:47;6.22;;;5.63;;
33844;SDS011;20145;43.118;25.694;2023-04-24T02:44:12;9.18;;;5.40;;
33844;SDS011;20145;43.118;25.694;2023-04-24T02:46:38;7.05;;;5.55;;
33844;SDS011;20145;43.118;25.694;2023-04-24T02:49:06;11.50;;;5.90;;
33844;SDS011;20145;43.118;25.694;2023-04-24T02:51:31;8.20;;;6.25;;
33844;SDS011;20145;43.118;25.694;2023-04-24T02:53:57;8.25;;;6.43;;
33844;SDS011;20145;43.118;25.694;2023-04-24T02:56:22;7.53;;;5.78;;
33844;SDS011;20145;43.118;25.694;2023-04-24T02:58:48;8.65;;;5.95;;
33844;SDS011;20145;43.118;25.694;2023-04-24T03:01:13;9.40;;;5.88;;
33844;SDS011;20145;43.118;25.694;2023-04-24T03:03:39;8.77;;;6.28;;
33844;SDS011;20145;43.118;25.694;2023-04-24T03:06:05;9.70;;;6.07;;
33844;SDS011;20145;43.118;25.694;2023-04-24T03:08:31;7.70;;;6.18;;
33844;SDS011;20145;43.118;25.694;2023-04-24T03:10:57;8.48;;;6.03;;
33844;SDS011;20145;43.118;25.694;2023-04-24T03:13:23;10.13;;;6.28;;
33844;SDS011;20145;43.118;25.694;2023-04-24T03:15:48;11.18;;;6.28;;
33844;SDS011;20145;43.118;25.694;2023-04-24T03:18:14;8.95;;;6.55;;
33844;SDS011;20145;43.118;25.694;2023-04-24T03:20:39;7.28;;;6.00;;
33844;SDS011;20145;43.118;25.694;2023-04-24T03:23:05;9.57;;;6.40;;
33844;SDS011;20145;43.118;25.694;2023-04-24T03:25:30;7.35;;;5.93;;
33844;SDS011;20145;43.118;25.694;2023-04-24T03:27:56;10.23;;;6.80;;
33844;SDS011;20145;43.118;25.694;2023-04-24T03:30:21;8.15;;;6.00;;
33844;SDS011;20145;43.118;25.694;2023-04-24T03:32:47;7.75;;;5.90;;
33844;SDS011;20145;43.118;25.694;2023-04-24T03:35:13;8.88;;;5.78;;
33844;SDS011;20145;43.118;25.694;2023-04-24T03:37:38;9.07;;;6.80;;
33844;SDS011;20145;43.118;25.694;2023-04-24T03:40:04;10.30;;;6.80;;
33844;SDS011;20145;43.118;25.694;2023-04-24T03:42:31;6.82;;;6.15;;
33844;SDS011;20145;43.118;25.694;2023-04-24T03:44:56;6.72;;;6.07;;
33844;SDS011;20145;43.118;25.694;2023-04-24T03:47:22;9.40;;;6.03;;
33844;SDS011;20145;43.118;25.694;2023-04-24T03:49:47;13.18;;;6.05;;
33844;SDS011;20145;43.118;25.694;2023-04-24T03:52:13;10.90;;;6.05;;
33844;SDS011;20145;43.118;25.694;2023-04-24T03:54:38;7.97;;;5.22;;
33844;SDS011;20145;43.118;25.694;2023-04-24T03:57:04;7.95;;;5.10;;
33844;SDS011;20145;43.118;25.694;2023-04-24T03:59:30;8.20;;;6.32;;
33844;SDS011;20145;43.118;25.694;2023-04-24T04:01:56;13.50;;;6.35;;
33844;SDS011;20145;43.118;25.694;2023-04-24T04:04:21;7.55;;;4.40;;
33844;SDS011;20145;43.118;25.694;2023-04-24T04:06:47;7.32;;;4.45;;
33844;SDS011;20145;43.118;25.694;2023-04-24T04:09:13;12.55;;;11.35;;
33844;SDS011;20145;43.118;25.694;2023-04-24T04:11:38;8.75;;;5.90;;
33844;SDS011;20145;43.118;25.694;2023-04-24T04:14:04;8.43;;;4.85;;
33844;SDS011;20145;43.118;25.694;2023-04-24T04:16:31;7.38;;;5.55;;
33844;SDS011;20145;43.118;25.694;2023-04-24T04:18:56;8.02;;;4.40;;
33844;SDS011;20145;43.118;25.694;2023-04-24T04:21:22;9.73;;;4.82;;
33844;SDS011;20145;43.118;25.694;2023-04-24T04:23:48;8.68;;;5.05;;
33844;SDS011;20145;43.118;25.694;2023-04-24T04:26:13;8.68;;;5.07;;
33844;SDS011;20145;43.118;25.694;2023-04-24T04:28:39;9.00;;;4.78;;
33844;SDS011;20145;43.118;25.694;2023-04-24T04:31:05;32.40;;;10.23;;
33844;SDS011;20145;43.118;25.694;2023-04-24T04:33:33;11.95;;;7.45;;
33844;SDS011;20145;43.118;25.694;2023-04-24T04:35:59;12.32;;;6.18;;
33844;SDS011;20145;43.118;25.694;2023-04-24T04:38:25;13.48;;;6.18;;
33844;SDS011;20145;43.118;25.694;2023-04-24T04:40:55;14.75;;;7.13;;
33844;SDS011;20145;43.118;25.694;2023-04-24T04:43:24;29.85;;;7.95;;
33844;SDS011;20145;43.118;25.694;2023-04-24T04:45:50;47.75;;;12.15;;
33844;SDS011;20145;43.118;25.694;2023-04-24T04:48:16;20.17;;;9.00;;
33844;SDS011;20145;43.118;25.694;2023-04-24T04:50:43;15.63;;;8.30;;
33844;SDS011;20145;43.118;25.694;2023-04-24T04:53:09;17.38;;;7.85;;
33844;SDS011;20145;43.118;25.694;2023-04-24T04:55:36;32.92;;;10.27;;
33844;SDS011;20145;43.118;25.694;2023-04-24T04:58:02;18.13;;;9.07;;
33844;SDS011;20145;43.118;25.694;2023-04-24T05:00:28;21.23;;;8.90;;
33844;SDS011;20145;43.118;25.694;2023-04-24T05:02:59;26.92;;;9.85;;
33844;SDS011;20145;43.118;25.694;2023-04-24T05:05:25;18.30;;;8.93;;
33844;SDS011;20145;43.118;25.694;2023-04-24T05:07:50;25.05;;;9.00;;
33844;SDS011;20145;43.118;25.694;2023-04-24T05:10:16;21.10;;;8.57;;
33844;SDS011;20145;43.118;25.694;2023-04-24T05:12:41;30.05;;;10.30;;
33844;SDS011;20145;43.118;25.694;2023-04-24T05:15:07;13.05;;;8.20;;
33844;SDS011;20145;43.118;25.694;2023-04-24T05:17:33;14.35;;;9.50;;
33844;SDS011;20145;43.118;25.694;2023-04-24T05:19:58;17.52;;;9.75;;
33844;SDS011;20145;43.118;25.694;2023-04-24T05:22:24;21.10;;;9.35;;
33844;SDS011;20145;43.118;25.694;2023-04-24T05:24:50;12.27;;;7.65;;
33844;SDS011;20145;43.118;25.694;2023-04-24T05:27:15;14.68;;;7.85;;
33844;SDS011;20145;43.118;25.694;2023-04-24T05:29:41;13.55;;;7.28;;
33844;SDS011;20145;43.118;25.694;2023-04-24T05:32:06;12.27;;;6.60;;
33844;SDS011;20145;43.118;25.694;2023-04-24T05:34:32;15.40;;;6.90;;
33844;SDS011;20145;43.118;25.694;2023-04-24T05:36:58;19.52;;;7.80;;
33844;SDS011;20145;43.118;25.694;2023-04-24T05:39:23;12.85;;;7.93;;
33844;SDS011;20145;43.118;25.694;2023-04-24T05:41:50;14.48;;;6.57;;
33844;SDS011;20145;43.118;25.694;2023-04-24T05:44:16;16.25;;;6.88;;
33844;SDS011;20145;43.118;25.694;2023-04-24T05:46:41;9.95;;;5.90;;
33844;SDS011;20145;43.118;25.694;2023-04-24T05:49:07;12.35;;;5.72;;
33844;SDS011;20145;43.118;25.694;2023-04-24T05:51:32;10.35;;;6.03;;
33844;SDS011;20145;43.118;25.694;2023-04-24T05:53:58;11.88;;;5.80;;
33844;SDS011;20145;43.118;25.694;2023-04-24T05:56:23;11.48;;;6.75;;
33844;SDS011;20145;43.118;25.694;2023-04-24T05:58:49;10.77;;;6.18;;
33844;SDS011;20145;43.118;25.694;2023-04-24T06:01:15;8.73;;;5.18;;
33844;SDS011;20145;43.118;25.694;2023-04-24T06:03:41;8.02;;;5.05;;
33844;SDS011;20145;43.118;25.694;2023-04-24T06:06:07;9.30;;;5.03;;
33844;SDS011;20145;43.118;25.694;2023-04-24T06:08:33;16.08;;;10.15;;
33844;SDS011;20145;43.118;25.694;2023-04-24T06:10:59;10.20;;;5.38;;
33844;SDS011;20145;43.118;25.694;2023-04-24T06:13:24;5.88;;;4.55;;
33844;SDS011;20145;43.118;25.694;2023-04-24T06:15:50;9.70;;;5.18;;
33844;SDS011;20145;43.118;25.694;2023-04-24T06:18:16;10.75;;;6.18;;
33844;SDS011;20145;43.118;25.694;2023-04-24T06:20:42;7.32;;;4.82;;
33844;SDS011;20145;43.118;25.694;2023-04-24T06:23:07;10.20;;;5.90;;
33844;SDS011;20145;43.118;25.694;2023-04-24T06:25:33;6.80;;;5.07;;
33844;SDS011;20145;43.118;25.694;2023-04-24T06:27:59;7.38;;;4.45;;
33844;SDS011;20145;43.118;25.694;2023-04-24T06:30:24;12.38;;;4.55;;
33844;SDS011;20145;43.118;25.694;2023-04-24T06:32:50;8.88;;;5.10;;
33844;SDS011;20145;43.118;25.694;2023-04-24T06:35:16;11.73;;;4.80;;
33844;SDS011;20145;43.118;25.694;2023-04-24T06:37:42;8.38;;;4.53;;
33844;SDS011;20145;43.118;25.694;2023-04-24T06:40:08;6.10;;;4.07;;
33844;SDS011;20145;43.118;25.694;2023-04-24T06:42:35;9.35;;;4.53;;
33844;SDS011;20145;43.118;25.694;2023-04-24T06:45:01;9.38;;;4.20;;
33844;SDS011;20145;43.118;25.694;2023-04-24T06:47:27;6.45;;;4.47;;
33844;SDS011;20145;43.118;25.694;2023-04-24T06:49:53;6.63;;;4.13;;
33844;SDS011;20145;43.118;25.694;2023-04-24T06:52:18;5.38;;;4.82;;
33844;SDS011;20145;43.118;25.694;2023-04-24T06:54:44;7.05;;;5.07;;
33844;SDS011;20145;43.118;25.694;2023-04-24T06:57:10;11.82;;;5.38;;
33844;SDS011;20145;43.118;25.694;2023-04-24T06:59:36;7.72;;;4.85;;
33844;SDS011;20145;43.118;25.694;2023-04-24T07:02:02;6.22;;;4.53;;
33844;SDS011;20145;43.118;25.694;2023-04-24T07:04:28;8.32;;;4.28;;
33844;SDS011;20145;43.118;25.694;2023-04-24T07:06:54;12.75;;;5.78;;
33844;SDS011;20145;43.118;25.694;2023-04-24T07:09:21;11.40;;;4.65;;
33844;SDS011;20145;43.118;25.694;2023-04-24T07:11:49;6.63;;;4.38;;
33844;SDS011;20145;43.118;25.694;2023-04-24T07:14:15;6.15;;;3.90;;
33844;SDS011;20145;43.118;25.694;2023-04-24T07:16:41;6.38;;;4.20;;
33844;SDS011;20145;43.118;25.694;2023-04-24T07:19:07;7.60;;;4.03;;
33844;SDS011;20145;43.118;25.694;2023-04-24T07:21:34;9.88;;;4.68;;
33844;SDS011;20145;43.118;25.694;2023-04-24T07:23:59;9.48;;;6.22;;
33844;SDS011;20145;43.118;25.694;2023-04-24T07:26:25;12.02;;;4.47;;
33844;SDS011;20145;43.118;25.694;2023-04-24T07:28:52;10.65;;;4.80;;
33844;SDS011;20145;43.118;25.694;2023-04-24T07:31:18;9.35;;;4.22;;
33844;SDS011;20145;43.118;25.694;2023-04-24T07:33:44;5.47;;;4.35;;
33844;SDS011;20145;43.118;25.694;2023-04-24T07:36:09;4.88;;;4.30;;
33844;SDS011;20145;43.118;25.694;2023-04-24T07:38:41;6.18;;;4.07;;
33844;SDS011;20145;43.118;25.694;2023-04-24T07:41:07;7.80;;;4.10;;
33844;SDS011;20145;43.118;25.694;2023-04-24T07:43:32;9.25;;;4.65;;
33844;SDS011;20145;43.118;25.694;2023-04-24T07:46:00;12.48;;;4.43;;
33844;SDS011;20145;43.118;25.694;2023-04-24T07:48:25;12.30;;;4.43;;
33844;SDS011;20145;43.118;25.694;2023-04-24T07:50:51;6.78;;;3.83;;
33844;SDS011;20145;43.118;25.694;2023-04-24T07:53:17;20.02;;;10.63;;
33844;SDS011;20145;43.118;25.694;2023-04-24T07:55:43;17.83;;;11.35;;
33844;SDS011;20145;43.118;25.694;2023-04-24T07:58:08;11.77;;;4.68;;
33844;SDS011;20145;43.118;25.694;2023-04-24T08:00:34;7.32;;;4.75;;
33844;SDS011;20145;43.118;25.694;2023-04-24T08:03:00;7.00;;;3.92;;
33844;SDS011;20145;43.118;25.694;2023-04-24T08:05:26;11.23;;;4.15;;
33844;SDS011;20145;43.118;25.694;2023-04-24T08:07:53;10.18;;;4.20;;
33844;SDS011;20145;43.118;25.694;2023-04-24T08:10:20;6.80;;;3.97;;
33844;SDS011;20145;43.118;25.694;2023-04-24T08:12:46;9.80;;;3.78;;
33844;SDS011;20145;43.118;25.694;2023-04-24T08:15:12;6.47;;;4.13;;
33844;SDS011;20145;43.118;25.694;2023-04-24T08:17:37;11.95;;;4.43;;
33844;SDS011;20145;43.118;25.694;2023-04-24T08:20:03;10.70;;;4.57;;
33844;SDS011;20145;43.118;25.694;2023-04-24T08:22:30;8.98;;;3.92;;
33844;SDS011;20145;43.118;25.694;2023-04-24T08:24:56;7.97;;;4.30;;
33844;SDS011;20145;43.118;25.694;2023-04-24T08:27:23;7.28;;;4.47;;
33844;SDS011;20145;43.118;25.694;2023-04-24T08:29:49;7.97;;;3.95;;
33844;SDS011;20145;43.118;25.694;2023-04-24T08:32:15;6.88;;;4.03;;
33844;SDS011;20145;43.118;25.694;2023-04-24T08:34:41;5.53;;;4.15;;
33844;SDS011;20145;43.118;25.694;2023-04-24T08:37:06;6.85;;;4.28;;
33844;SDS011;20145;43.118;25.694;2023-04-24T08:39:32;5.95;;;4.03;;
33844;SDS011;20145;43.118;25.694;2023-04-24T08:41:57;9.63;;;3.90;;
33844;SDS011;20145;43.118;25.694;2023-04-24T08:44:31;9.43;;;4.10;;
33844;SDS011;20145;43.118;25.694;2023-04-24T08:46:57;8.70;;;3.97;;
33844;SDS011;20145;43.118;25.694;2023-04-24T08:49:23;5.72;;;4.13;;
33844;SDS011;20145;43.118;25.694;2023-04-24T08:51:50;7.85;;;4.03;;
33844;SDS011;20145;43.118;25.694;2023-04-24T08:54:17;9.90;;;4.40;;
33844;SDS011;20145;43.118;25.694;2023-04-24T08:56:44;8.55;;;4.30;;
33844;SDS011;20145;43.118;25.694;2023-04-24T08:59:12;5.22;;;3.83;;
33844;SDS011;20145;43.118;25.694;2023-04-24T09:01:39;11.88;;;4.80;;
33844;SDS011;20145;43.118;25.694;2023-04-24T09:04:05;9.63;;;5.45;;
33844;SDS011;20145;43.118;25.694;2023-04-24T09:06:32;12.52;;;4.68;;
33844;SDS011;20145;43.118;25.694;2023-04-24T09:09:02;9.55;;;4.95;;
33844;SDS011;20145;43.118;25.694;2023-04-24T09:11:29;11.57;;;4.50;;
33844;SDS011;20145;43.118;25.694;2023-04-24T09:13:56;15.95;;;4.80;;
33844;SDS011;20145;43.118;25.694;2023-04-24T09:16:22;9.30;;;4.05;;
33844;SDS011;20145;43.118;25.694;2023-04-24T09:18:51;8.43;;;5.07;;
33844;SDS011;20145;43.118;25.694;2023-04-24T09:21:17;7.32;;;4.55;;
33844;SDS011;20145;43.118;25.694;2023-04-24T09:23:42;12.75;;;5.70;;
33844;SDS011;20145;43.118;25.694;2023-04-24T09:26:08;7.90;;;4.43;;
33844;SDS011;20145;43.118;25.694;2023-04-24T09:28:35;7.57;;;4.65;;
33844;SDS011;20145;43.118;25.694;2023-04-24T09:31:02;9.55;;;4.95;;
33844;SDS011;20145;43.118;25.694;2023-04-24T09:33:28;6.47;;;4.03;;
33844;SDS011;20145;43.118;25.694;2023-04-24T09:35:54;7.85;;;4.15;;
33844;SDS011;20145;43.118;25.694;2023-04-24T09:38:30;5.45;;;3.75;;
33844;SDS011;20145;43.118;25.694;2023-04-24T09:41:00;7.30;;;3.53;;
33844;SDS011;20145;43.118;25.694;2023-04-24T09:43:28;7.35;;;3.97;;
33844;SDS011;20145;43.118;25.694;2023-04-24T09:45:58;9.80;;;3.88;;
33844;SDS011;20145;43.118;25.694;2023-04-24T09:48:35;5.95;;;4.00;;
33844;SDS011;20145;43.118;25.694;2023-04-24T09:51:02;6.22;;;3.40;;
33844;SDS011;20145;43.118;25.694;2023-04-24T09:53:32;7.30;;;4.15;;
33844;SDS011;20145;43.118;25.694;2023-04-24T09:56:07;9.55;;;3.88;;
33844;SDS011;20145;43.118;25.694;2023-04-24T09:58:34;6.75;;;3.90;;
33844;SDS011;20145;43.118;25.694;2023-04-24T10:01:01;6.82;;;3.47;;
33844;SDS011;20145;43.118;25.694;2023-04-24T10:03:29;6.28;;;3.10;;
33844;SDS011;20145;43.118;25.694;2023-04-24T10:05:59;8.07;;;3.08;;
33844;SDS011;20145;43.118;25.694;2023-04-24T10:08:26;4.93;;;3.70;;
33844;SDS011;20145;43.118;25.694;2023-04-24T10:10:57;17.90;;;5.43;;
33844;SDS011;20145;43.118;25.694;2023-04-24T10:13:24;8.70;;;4.05;;
33844;SDS011;20145;43.118;25.694;2023-04-24T10:15:51;6.78;;;4.20;;
33844;SDS011;20145;43.118;25.694;2023-04-24T10:18:16;5.72;;;3.70;;
33844;SDS011;20145;43.118;25.694;2023-04-24T10:20:43;8.77;;;4.05;;
33844;SDS011;20145;43.118;25.694;2023-04-24T10:23:10;4.00;;;3.60;;
33844;SDS011;20145;43.118;25.694;2023-04-24T10:25:36;7.78;;;3.45;;
33844;SDS011;20145;43.118;25.694;2023-04-24T10:28:02;5.50;;;3.13;;
33844;SDS011;20145;43.118;25.694;2023-04-24T10:30:29;5.07;;;3.63;;
33844;SDS011;20145;43.118;25.694;2023-04-24T10:33:03;5.63;;;3.20;;
33844;SDS011;20145;43.118;25.694;2023-04-24T10:35:31;4.25;;;2.97;;
33844;SDS011;20145;43.118;25.694;2023-04-24T10:38:09;5.28;;;2.90;;
33844;SDS011;20145;43.118;25.694;2023-04-24T10:40:37;7.30;;;3.47;;
33844;SDS011;20145;43.118;25.694;2023-04-24T10:43:06;3.67;;;3.00;;
33844;SDS011;20145;43.118;25.694;2023-04-24T10:45:36;4.85;;;3.28;;
33844;SDS011;20145;43.118;25.694;2023-04-24T10:48:03;6.70;;;3.20;;
33844;SDS011;20145;43.118;25.694;2023-04-24T10:50:29;9.90;;;3.70;;
33844;SDS011;20145;43.118;25.694;2023-04-24T10:53:11;5.40;;;3.50;;
33844;SDS011;20145;43.118;25.694;2023-04-24T10:55:43;4.47;;;2.92;;
33844;SDS011;20145;43.118;25.694;2023-04-24T10:58:09;3.28;;;2.95;;
33844;SDS011;20145;43.118;25.694;2023-04-24T11:00:44;4.93;;;3.30;;
33844;SDS011;20145;43.118;25.694;2023-04-24T11:05:59;15.50;;;3.95;;
33844;SDS011;20145;43.118;25.694;2023-04-24T11:11:10;6.07;;;2.90;;
33844;SDS011;20145;43.118;25.694;2023-04-24T11:19:02;5.00;;;3.40;;
33844;SDS011;20145;43.118;25.694;2023-04-24T11:21:58;6.05;;;3.20;;
33844;SDS011;20145;43.118;25.694;2023-04-24T11:29:47;6.82;;;3.80;;
33844;SDS011;20145;43.118;25.694;2023-04-24T11:34:45;7.50;;;3.15;;
33844;SDS011;20145;43.118;25.694;2023-04-24T11:37:13;4.95;;;3.10;;
33844;SDS011;20145;43.118;25.694;2023-04-24T11:39:39;7.40;;;3.30;;
33844;SDS011;20145;43.118;25.694;2023-04-24T11:42:05;4.43;;;3.25;;
33844;SDS011;20145;43.118;25.694;2023-04-24T11:44:33;4.90;;;2.80;;
33844;SDS011;20145;43.118;25.694;2023-04-24T11:47:00;9.15;;;3.88;;
33844;SDS011;20145;43.118;25.694;2023-04-24T11:49:25;6.85;;;3.67;;
33844;SDS011;20145;43.118;25.694;2023-04-24T11:51:54;6.70;;;2.88;;
33844;SDS011;20145;43.118;25.694;2023-04-24T11:54:21;6.40;;;3.25;;
33844;SDS011;20145;43.118;25.694;2023-04-24T11:56:47;4.32;;;2.83;;
33844;SDS011;20145;43.118;25.694;2023-04-24T11:59:14;6.72;;;3.35;;
33844;SDS011;20145;43.118;25.694;2023-04-24T12:01:43;8.50;;;3.80;;
33844;SDS011;20145;43.118;25.694;2023-04-24T12:04:10;7.05;;;3.15;;
33844;SDS011;20145;43.118;25.694;2023-04-24T12:06:37;3.10;;;2.80;;
33844;SDS011;20145;43.118;25.694;2023-04-24T12:09:02;6.93;;;3.13;;
33844;SDS011;20145;43.118;25.694;2023-04-24T12:11:28;6.03;;;3.72;;
33844;SDS011;20145;43.118;25.694;2023-04-24T12:13:54;7.63;;;3.50;;
33844;SDS011;20145;43.118;25.694;2023-04-24T12:16:19;7.97;;;3.63;;
33844;SDS011;20145;43.118;25.694;2023-04-24T12:18:45;4.30;;;3.03;;
33844;SDS011;20145;43.118;25.694;2023-04-24T12:21:29;7.88;;;3.17;;
33844;SDS011;20145;43.118;25.694;2023-04-24T12:23:55;6.90;;;3.63;;
33844;SDS011;20145;43.118;25.694;2023-04-24T12:26:21;6.15;;;3.67;;
33844;SDS011;20145;43.118;25.694;2023-04-24T12:28:48;7.53;;;3.80;;
33844;SDS011;20145;43.118;25.694;2023-04-24T12:31:15;7.07;;;4.95;;
33844;SDS011;20145;43.118;25.694;2023-04-24T12:33:41;5.43;;;3.55;;
33844;SDS011;20145;43.118;25.694;2023-04-24T12:36:09;5.68;;;3.60;;
33844;SDS011;20145;43.118;25.694;2023-04-24T12:38:37;8.07;;;6.13;;
33844;SDS011;20145;43.118;25.694;2023-04-24T12:41:09;7.53;;;4.20;;
33844;SDS011;20145;43.118;25.694;2023-04-24T12:43:36;3.90;;;3.05;;
33844;SDS011;20145;43.118;25.694;2023-04-24T12:46:03;6.90;;;3.47;;
33844;SDS011;20145;43.118;25.694;2023-04-24T12:48:29;4.25;;;3.22;;
33844;SDS011;20145;43.118;25.694;2023-04-24T12:50:58;8.65;;;3.45;;
33844;SDS011;20145;43.118;25.694;2023-04-24T12:53:27;4.10;;;3.55;;
33844;SDS011;20145;43.118;25.694;2023-04-24T12:55:54;5.25;;;3.40;;
33844;SDS011;20145;43.118;25.694;2023-04-24T12:58:20;3.80;;;3.00;;
33844;SDS011;20145;43.118;25.694;2023-04-24T13:00:47;8.90;;;3.47;;
33844;SDS011;20145;43.118;25.694;2023-04-24T13:03:13;6.68;;;3.30;;
33844;SDS011;20145;43.118;25.694;2023-04-24T13:05:39;6.35;;;3.70;;
33844;SDS011;20145;43.118;25.694;2023-04-24T13:08:05;5.22;;;2.78;;
33844;SDS011;20145;43.118;25.694;2023-04-24T13:10:31;4.32;;;2.72;;
33844;SDS011;20145;43.118;25.694;2023-04-24T13:12:56;3.88;;;2.65;;
33844;SDS011;20145;43.118;25.694;2023-04-24T13:15:22;14.85;;;4.30;;
33844;SDS011;20145;43.118;25.694;2023-04-24T13:17:48;4.57;;;2.75;;
33844;SDS011;20145;43.118;25.694;2023-04-24T13:20:14;5.38;;;2.67;;
33844;SDS011;20145;43.118;25.694;2023-04-24T13:22:40;2.88;;;2.40;;
33844;SDS011;20145;43.118;25.694;2023-04-24T13:25:07;3.13;;;2.42;;
33844;SDS011;20145;43.118;25.694;2023-04-24T13:27:32;6.20;;;2.95;;
33844;SDS011;20145;43.118;25.694;2023-04-24T13:29:58;5.07;;;3.03;;
33844;SDS011;20145;43.118;25.694;2023-04-24T13:32:24;4.13;;;2.55;;
33844;SDS011;20145;43.118;25.694;2023-04-24T13:34:50;3.28;;;2.55;;
33844;SDS011;20145;43.118;25.694;2023-04-24T13:37:16;4.85;;;3.15;;
33844;SDS011;20145;43.118;25.694;2023-04-24T13:39:41;4.63;;;3.42;;
33844;SDS011;20145;43.118;25.694;2023-04-24T13:42:07;11.38;;;3.20;;
33844;SDS011;20145;43.118;25.694;2023-04-24T13:44:32;4.38;;;3.28;;
33844;SDS011;20145;43.118;25.694;2023-04-24T13:46:58;5.43;;;2.75;;
33844;SDS011;20145;43.118;25.694;2023-04-24T13:49:24;6.65;;;3.28;;
33844;SDS011;20145;43.118;25.694;2023-04-24T13:51:51;7.68;;;3.30;;
33844;SDS011;20145;43.118;25.694;2023-04-24T13:54:17;7.18;;;3.15;;
33844;SDS011;20145;43.118;25.694;2023-04-24T13:56:43;4.20;;;3.20;;
33844;SDS011;20145;43.118;25.694;2023-04-24T13:59:09;4.00;;;3.13;;
33844;SDS011;20145;43.118;25.694;2023-04-24T14:01:34;5.95;;;3.10;;
33844;SDS011;20145;43.118;25.694;2023-04-24T14:04:00;15.32;;;4.35;;
33844;SDS011;20145;43.118;25.694;2023-04-24T14:06:26;5.45;;;3.10;;
33844;SDS011;20145;43.118;25.694;2023-04-24T14:08:52;5.13;;;3.08;;
33844;SDS011;20145;43.118;25.694;2023-04-24T14:11:18;8.20;;;3.85;;
33844;SDS011;20145;43.118;25.694;2023-04-24T14:13:44;5.55;;;2.92;;
33844;SDS011;20145;43.118;25.694;2023-04-24T14:16:10;3.75;;;3.17;;
33844;SDS011;20145;43.118;25.694;2023-04-24T14:18:36;6.88;;;3.30;;
33844;SDS011;20145;43.118;25.694;2023-04-24T14:21:02;5.05;;;3.20;;
33844;SDS011;20145;43.118;25.694;2023-04-24T14:23:28;7.28;;;3.30;;
33844;SDS011;20145;43.118;25.694;2023-04-24T14:25:54;5.00;;;3.25;;
33844;SDS011;20145;43.118;25.694;2023-04-24T14:28:20;4.97;;;3.17;;
33844;SDS011;20145;43.118;25.694;2023-04-24T14:30:46;5.38;;;3.58;;
33844;SDS011;20145;43.118;25.694;2023-04-24T14:33:13;10.05;;;4.00;;
33844;SDS011;20145;43.118;25.694;2023-04-24T14:35:39;3.05;;;2.72;;
33844;SDS011;20145;43.118;25.694;2023-04-24T14:38:07;8.43;;;3.30;;
33844;SDS011;20145;43.118;25.694;2023-04-24T14:40:33;8.52;;;3.70;;
33844;SDS011;20145;43.118;25.694;2023-04-24T14:42:58;6.70;;;4.00;;
33844;SDS011;20145;43.118;25.694;2023-04-24T14:45:24;3.58;;;3.03;;